Terminal Aerodrome Forecast
Issued by NWS

Home | Current Version | Previous Version | Text Only | Print | Product List | Glossary On
Versions: 1 2 3 4 5 6 7 8 9 10 11 12 13 14 15 16
000
FTUS45 KVEF 311725
TAFHND
TAF
KHND 311725Z 3118/0118 05007KT P6SM FEW100 SCT150 SCT200
     FM312100 20010KT P6SM VCTS SCT090CB BKN150
      TEMPO 3121/0101 VRB15G25KT 6SM -TSRA FEW060 SCT080CB BKN100
     FM010200 21010KT P6SM SCT100 BKN150 BKN200
     FM011300 15008KT P6SM VCTS SCT090CB BKN150=

USA.gov is the U.S. government's official web portal to all federal, state and local government web resources and services.